Time;durP1;ratioP1;P1;durP2;ratioP2;P2;SDS_P1;SDS_P2;PMS_P1;PMS_P2;Temp;Humidity;BMP_temperature;BMP_pressure;BME280_temperature;BME280_humidity;BME280_pressure;Samples;Min_cycle;Max_cycle;Signal;HPM_P1;HPM_P2
2021/06/23 00:01:15;;;;;;;9.88;4.05;;;17.30;99.90;;;;;;5072688;28;20059;-60
2021/06/23 00:03:42;;;;;;;9.43;4.10;;;17.40;99.90;;;;;;5090778;28;20315;-62
2021/06/23 00:06:07;;;;;;;5.80;3.45;;;17.30;99.90;;;;;;5089449;28;20190;-60
2021/06/23 00:08:34;;;;;;;5.30;3.60;;;17.40;99.90;;;;;;5071599;28;20024;-60
2021/06/23 00:11:00;;;;;;;7.85;3.92;;;17.40;99.90;;;;;;5089745;28;20059;-60
2021/06/23 00:13:28;;;;;;;9.20;3.70;;;17.40;99.90;;;;;;5071206;28;20062;-60
2021/06/23 00:15:55;;;;;;;9.73;4.82;;;17.50;99.90;;;;;;5088950;28;20028;-60
2021/06/23 00:18:21;;;;;;;8.68;4.03;;;17.40;99.90;;;;;;5089058;28;20032;-59
2021/06/23 00:20:46;;;;;;;7.00;4.28;;;17.50;99.90;;;;;;5089638;28;20067;-59
2021/06/23 00:23:12;;;;;;;6.20;3.70;;;17.30;99.90;;;;;;5088832;28;20447;-59
2021/06/23 00:25:38;;;;;;;8.65;4.00;;;17.40;99.90;;;;;;5089510;28;20101;-60
2021/06/23 00:28:03;;;;;;;6.93;4.28;;;17.40;99.90;;;;;;5088963;28;20055;-59
2021/06/23 00:30:29;;;;;;;8.68;4.03;;;17.40;99.90;;;;;;5105098;28;20031;-60
2021/06/23 00:33:02;;;;;;;9.13;4.13;;;17.30;99.90;;;;;;5089529;28;20107;-60
2021/06/23 00:35:28;;;;;;;6.93;3.78;;;17.40;99.90;;;;;;5093648;28;20016;-63
2021/06/23 00:37:53;;;;;;;7.00;4.25;;;17.40;99.90;;;;;;5074619;28;20024;-60
2021/06/23 00:40:19;;;;;;;6.72;3.58;;;17.40;99.90;;;;;;5093394;28;20465;-60
2021/06/23 00:42:45;;;;;;;9.80;4.10;;;17.40;99.90;;;;;;5093517;28;20156;-60
2021/06/23 00:45:13;;;;;;;10.27;3.97;;;17.40;99.90;;;;;;5093439;28;20024;-60
2021/06/23 00:47:46;;;;;;;8.60;3.50;;;17.40;99.90;;;;;;5093386;28;20119;-60
2021/06/23 00:50:13;;;;;;;9.60;3.75;;;17.50;99.90;;;;;;5092967;28;20039;-61
2021/06/23 00:52:40;;;;;;;7.28;3.47;;;17.50;99.90;;;;;;5093067;28;20020;-60
2021/06/23 00:55:06;;;;;;;14.05;4.25;;;17.50;99.90;;;;;;5108359;28;20082;-60
2021/06/23 00:57:32;;;;;;;5.10;3.35;;;17.50;99.90;;;;;;5093246;28;20035;-60
2021/06/23 00:59:59;;;;;;;8.80;4.00;;;17.40;99.90;;;;;;5092552;28;20028;-60
2021/06/23 01:02:26;;;;;;;9.98;3.83;;;17.40;99.90;;;;;;5093407;28;20345;-60
2021/06/23 01:04:53;;;;;;;9.25;3.70;;;17.30;99.90;;;;;;5092162;28;20107;-71
2021/06/23 01:07:19;;;;;;;8.07;4.55;;;17.40;99.90;;;;;;5093126;28;20035;-61
2021/06/23 01:09:46;;;;;;;10.90;3.70;;;17.30;99.90;;;;;;5093262;28;20054;-60
2021/06/23 01:12:43;;;;;;;8.30;4.55;;;17.40;99.90;;;;;;5092174;28;20353;-60
2021/06/23 01:15:09;;;;;;;6.05;4.00;;;17.30;99.90;;;;;;5108153;28;20425;-60
2021/06/23 01:17:36;;;;;;;9.75;3.63;;;17.30;99.90;;;;;;5092621;28;20051;-60
2021/06/23 01:20:10;;;;;;;9.60;4.05;;;17.30;99.90;;;;;;5091742;28;20086;-60
2021/06/23 01:22:42;;;;;;;7.72;3.83;;;17.40;99.90;;;;;;5092755;28;20024;-60
2021/06/23 01:25:11;;;;;;;6.57;3.65;;;17.40;99.90;;;;;;5092083;28;20031;-60
2021/06/23 01:27:38;;;;;;;5.82;3.67;;;17.30;99.90;;;;;;5092960;28;20054;-60
2021/06/23 01:30:05;;;;;;;7.22;3.85;;;17.30;99.90;;;;;;5091712;28;20032;-60
2021/06/23 01:32:32;;;;;;;7.80;3.67;;;17.30;99.90;;;;;;5073938;28;20028;-60
2021/06/23 01:34:58;;;;;;;5.47;3.25;;;17.30;99.90;;;;;;5092429;28;20035;-60
2021/06/23 01:37:24;;;;;;;6.25;3.60;;;17.40;99.90;;;;;;5092690;28;20051;-60
2021/06/23 01:39:49;;;;;;;10.70;4.18;;;17.40;99.90;;;;;;5092685;28;20028;-61
2021/06/23 01:42:15;;;;;;;9.20;4.90;;;17.30;99.90;;;;;;5107887;28;20356;-61
2021/06/23 01:44:41;;;;;;;9.38;4.00;;;17.40;99.90;;;;;;5090788;28;20039;-60
2021/06/23 01:47:07;;;;;;;5.97;3.78;;;17.40;99.90;;;;;;5091366;28;20135;-60
2021/06/23 01:49:33;;;;;;;8.23;4.07;;;17.40;99.90;;;;;;5092451;28;20024;-60
2021/06/23 01:51:59;;;;;;;7.18;3.30;;;17.30;99.90;;;;;;5091590;28;20035;-61
2021/06/23 01:54:24;;;;;;;6.32;3.78;;;17.40;99.90;;;;;;5074038;28;20075;-60
2021/06/23 01:56:50;;;;;;;5.85;2.90;;;17.30;99.90;;;;;;5107755;28;20060;-62
2021/06/23 01:59:16;;;;;;;9.40;3.50;;;17.30;99.90;;;;;;5091340;28;20027;-60
2021/06/23 02:01:49;;;;;;;12.63;3.80;;;17.30;99.90;;;;;;5107691;28;20389;-60
2021/06/23 02:04:56;;;;;;;6.28;3.75;;;17.40;99.90;;;;;;5091456;28;20211;-59
2021/06/23 02:07:58;;;;;;;6.43;3.70;;;17.40;99.90;;;;;;5063748;28;20085;-60
2021/06/23 02:10:39;;;;;;;6.40;3.33;;;17.30;99.90;;;;;;5016810;28;20040;-61
2021/06/23 02:13:29;;;;;;;9.48;3.83;;;17.20;99.90;;;;;;5048248;28;20111;-60
2021/06/23 02:16:02;;;;;;;9.50;4.20;;;17.20;99.90;;;;;;5048975;28;20033;-60
2021/06/23 02:18:27;;;;;;;5.47;3.10;;;17.20;99.90;;;;;;5032908;28;20033;-60
2021/06/23 02:20:56;;;;;;;8.45;3.63;;;17.30;99.90;;;;;;5048542;28;20052;-63
2021/06/23 02:23:22;;;;;;;11.30;4.05;;;17.30;99.90;;;;;;5048816;28;20091;-59
2021/06/23 02:25:50;;;;;;;7.80;3.65;;;17.30;99.90;;;;;;5049041;28;20033;-59
2021/06/23 02:28:17;;;;;;;6.70;4.47;;;17.40;99.90;;;;;;5048387;28;20486;-60
2021/06/23 02:30:43;;;;;;;7.82;4.10;;;17.30;99.90;;;;;;5049130;28;20092;-60
2021/06/23 02:33:10;;;;;;;6.53;4.97;;;17.30;99.90;;;;;;5048412;28;20104;-61
2021/06/23 02:35:37;;;;;;;7.43;3.70;;;17.30;99.90;;;;;;5048776;28;20037;-60
2021/06/23 02:38:05;;;;;;;9.60;4.50;;;17.20;99.90;;;;;;5048329;28;20223;-60
2021/06/23 02:40:31;;;;;;;7.50;3.75;;;17.30;99.90;;;;;;5054673;28;20049;-59
2021/06/23 02:42:57;;;;;;;10.98;4.85;;;17.30;99.90;;;;;;5091178;28;20170;-60
2021/06/23 02:45:24;;;;;;;8.43;4.10;;;17.30;99.90;;;;;;5091031;28;20445;-59
2021/06/23 02:47:50;;;;;;;6.32;3.80;;;17.30;99.90;;;;;;5072297;28;20084;-60
2021/06/23 02:50:16;;;;;;;10.25;4.45;;;17.40;99.90;;;;;;5105905;28;20455;-60
2021/06/23 02:52:42;;;;;;;7.60;4.05;;;17.40;99.90;;;;;;5072754;28;20027;-59
2021/06/23 02:55:08;;;;;;;8.30;3.60;;;17.40;99.90;;;;;;5090234;28;20020;-60
2021/06/23 02:57:34;;;;;;;6.75;3.70;;;17.40;99.90;;;;;;5090452;28;20100;-59
2021/06/23 03:00:01;;;;;;;6.22;3.50;;;17.40;99.90;;;;;;5090106;28;20039;-60
2021/06/23 03:02:27;;;;;;;8.10;3.38;;;17.40;99.90;;;;;;5090461;28;20032;-59
2021/06/23 03:04:52;;;;;;;8.13;3.70;;;17.50;99.90;;;;;;5106260;28;20377;-60
2021/06/23 03:07:18;;;;;;;10.65;4.10;;;17.40;99.90;;;;;;5089716;28;20222;-60
2021/06/23 03:09:45;;;;;;;9.00;3.75;;;17.50;99.90;;;;;;5090631;28;20089;-59
2021/06/23 03:12:12;;;;;;;13.13;4.03;;;17.50;99.90;;;;;;5090004;28;20106;-60
2021/06/23 03:14:38;;;;;;;12.65;4.90;;;17.50;99.90;;;;;;5090394;28;20028;-60
2021/06/23 03:17:04;;;;;;;7.13;3.25;;;17.40;99.90;;;;;;5071399;28;20039;-59
2021/06/23 03:19:29;;;;;;;13.40;3.95;;;17.40;99.90;;;;;;5089759;28;20075;-59
2021/06/23 03:21:55;;;;;;;12.30;4.78;;;17.40;99.90;;;;;;5105906;28;20066;-59
2021/06/23 03:24:21;;;;;;;11.25;4.70;;;17.30;99.90;;;;;;5089295;28;20076;-60
2021/06/23 03:26:47;;;;;;;10.63;4.53;;;17.30;99.90;;;;;;5090266;28;20020;-59
2021/06/23 03:29:29;;;;;;;11.13;4.00;;;17.40;99.90;;;;;;5089527;28;20479;-59
2021/06/23 03:31:56;;;;;;;15.55;3.83;;;17.30;99.90;;;;;;5090362;28;20020;-59
2021/06/23 03:34:22;;;;;;;10.00;3.15;;;17.40;99.90;;;;;;5105030;28;20369;-59
2021/06/23 03:36:48;;;;;;;6.30;4.05;;;17.40;99.90;;;;;;5071272;28;20024;-59
2021/06/23 03:39:14;;;;;;;9.93;4.22;;;17.40;99.90;;;;;;5104998;28;20024;-60
2021/06/23 03:41:39;;;;;;;10.15;4.40;;;17.40;99.90;;;;;;5090052;28;20104;-60
2021/06/23 03:44:05;;;;;;;10.70;3.80;;;17.30;99.90;;;;;;5089198;28;20039;-60
2021/06/23 03:46:31;;;;;;;8.65;3.45;;;17.30;99.90;;;;;;5105298;28;20029;-59
2021/06/23 03:48:57;;;;;;;4.25;2.78;;;17.40;99.90;;;;;;5071366;28;20051;-61
2021/06/23 03:51:24;;;;;;;8.60;4.13;;;17.50;99.90;;;;;;5089558;28;20020;-60
2021/06/23 03:53:49;;;;;;;7.45;4.03;;;17.40;99.90;;;;;;5089811;28;20032;-59
2021/06/23 03:56:16;;;;;;;5.70;3.65;;;17.50;99.90;;;;;;5089471;28;20111;-59
2021/06/23 03:58:42;;;;;;;11.05;4.20;;;17.50;99.90;;;;;;5105578;28;20052;-59
2021/06/23 04:01:08;;;;;;;11.18;3.95;;;17.50;99.90;;;;;;5071591;28;20028;-59
2021/06/23 04:03:34;;;;;;;6.95;3.20;;;17.50;99.90;;;;;;5089911;28;20504;-59
2021/06/23 04:05:59;;;;;;;13.13;3.42;;;17.40;99.90;;;;;;5089717;28;20051;-61
2021/06/23 04:08:25;;;;;;;7.50;3.20;;;17.40;99.90;;;;;;5090538;28;20028;-59
2021/06/23 04:10:51;;;;;;;13.32;4.32;;;17.50;99.90;;;;;;5094027;28;20493;-61
2021/06/23 04:13:16;;;;;;;9.63;3.65;;;17.50;99.90;;;;;;5108997;28;20089;-59
2021/06/23 04:15:42;;;;;;;6.05;3.50;;;17.60;99.90;;;;;;5094203;28;20028;-59
2021/06/23 04:18:08;;;;;;;9.73;4.22;;;17.60;99.90;;;;;;5093439;28;20028;-59
2021/06/23 04:20:34;;;;;;;11.77;3.70;;;17.50;99.90;;;;;;5075381;28;20123;-59
2021/06/23 04:23:00;;;;;;;11.68;3.58;;;17.60;99.90;;;;;;5075434;28;20081;-59
2021/06/23 04:25:26;;;;;;;9.35;3.88;;;17.70;99.90;;;;;;5093091;28;20025;-61
2021/06/23 04:27:51;;;;;;;10.48;3.60;;;17.70;99.90;;;;;;5075183;28;20441;-59
2021/06/23 04:30:17;;;;;;;8.77;3.20;;;17.80;99.90;;;;;;5093122;28;20044;-59
2021/06/23 04:32:43;;;;;;;8.02;3.70;;;17.70;99.90;;;;;;5093771;28;20039;-59
2021/06/23 04:35:10;;;;;;;6.30;3.42;;;17.90;99.90;;;;;;5093159;28;20077;-62
2021/06/23 04:37:39;;;;;;;9.35;2.78;;;17.90;99.90;;;;;;5093788;28;20024;-59
2021/06/23 04:40:08;;;;;;;14.13;3.63;;;18.00;99.90;;;;;;5092408;28;20020;-65
2021/06/23 04:42:36;;;;;;;6.72;3.83;;;18.00;99.90;;;;;;5093024;28;20444;-60
2021/06/23 04:45:04;;;;;;;7.43;5.40;;;18.10;99.90;;;;;;5093419;28;20024;-59
2021/06/23 04:47:30;;;;;;;8.07;4.45;;;18.10;99.90;;;;;;5092643;28;20397;-59
2021/06/23 04:49:56;;;;;;;8.77;3.42;;;18.10;99.90;;;;;;5093141;28;20073;-59
2021/06/23 04:52:22;;;;;;;10.38;3.67;;;18.20;99.90;;;;;;5092642;28;20024;-59
2021/06/23 04:54:47;;;;;;;8.52;3.75;;;18.10;99.90;;;;;;5093259;28;20024;-59
2021/06/23 04:57:13;;;;;;;9.55;3.55;;;18.10;99.90;;;;;;5092699;28;20067;-60
2021/06/23 04:59:39;;;;;;;12.35;4.40;;;18.20;99.90;;;;;;5075222;28;20092;-59
2021/06/23 05:02:05;;;;;;;8.40;3.58;;;18.40;99.90;;;;;;5093459;28;20103;-59
2021/06/23 05:04:31;;;;;;;5.43;3.67;;;18.50;99.90;;;;;;5093114;28;20128;-60
2021/06/23 05:06:56;;;;;;;14.30;4.35;;;18.50;99.90;;;;;;5108535;28;20043;-60
2021/06/23 05:09:22;;;;;;;11.23;4.53;;;18.50;99.90;;;;;;5107578;28;20039;-59
2021/06/23 05:11:47;;;;;;;9.88;4.07;;;18.50;99.90;;;;;;5093096;28;20028;-59
2021/06/23 05:14:13;;;;;;;7.40;3.90;;;18.60;99.90;;;;;;5073826;28;20035;-59
2021/06/23 05:16:40;;;;;;;8.13;4.20;;;18.70;99.90;;;;;;5092553;28;20032;-60
2021/06/23 05:19:06;;;;;;;6.38;4.57;;;18.80;99.90;;;;;;5092276;28;20143;-60
2021/06/23 05:21:35;;;;;;;7.63;3.40;;;18.80;99.90;;;;;;5092395;28;20099;-60
2021/06/23 05:24:06;;;;;;;13.25;4.68;;;18.60;99.90;;;;;;5074314;28;20038;-60
2021/06/23 05:26:32;;;;;;;;;;;18.70;99.90;;;;;;5085746;28;20032;-59
2021/06/23 05:28:59;;;;;;;6.30;4.18;;;18.60;99.90;;;;;;5058111;28;19961;-59
2021/06/23 05:31:24;;;;;;;6.68;3.67;;;18.60;99.90;;;;;;5071709;28;20121;-61
2021/06/23 05:33:50;;;;;;;5.65;3.55;;;18.70;99.90;;;;;;5087834;28;20446;-60
2021/06/23 05:36:17;;;;;;;16.90;4.97;;;18.60;99.90;;;;;;5071091;28;20025;-60
2021/06/23 05:38:42;;;;;;;8.15;3.83;;;18.70;99.90;;;;;;5071689;28;20354;-61
2021/06/23 05:41:08;;;;;;;15.30;4.95;;;18.80;99.90;;;;;;5071542;28;20031;-82
2021/06/23 05:43:34;;;;;;;39.70;9.85;;;18.90;99.90;;;;;;5071573;28;20033;-62
2021/06/23 05:45:59;;;;;;;25.38;7.28;;;19.30;99.90;;;;;;5053690;28;20055;-62
2021/06/23 05:48:25;;;;;;;18.17;5.30;;;19.50;99.90;;;;;;5071738;28;20041;-62
2021/06/23 05:50:51;;;;;;;12.57;4.30;;;19.60;99.90;;;;;;5072371;28;20066;-63
2021/06/23 05:53:17;;;;;;;15.00;4.50;;;19.80;99.90;;;;;;5090297;28;20060;-65
2021/06/23 05:55:42;;;;;;;8.50;3.80;;;20.10;99.90;;;;;;5091305;28;20086;-65
2021/06/23 05:58:09;;;;;;;11.73;3.72;;;20.20;99.90;;;;;;5072692;28;20070;-71
2021/06/23 06:00:36;;;;;;;7.93;2.03;;;20.50;99.90;;;;;;5072444;28;20118;-64
2021/06/23 06:03:03;;;;;;;4.15;2.35;;;21.00;99.90;;;;;;5072718;28;20044;-65
2021/06/23 06:05:29;;;;;;;6.05;1.70;;;21.70;99.90;;;;;;5090075;28;20130;-64
2021/06/23 06:07:55;;;;;;;6.78;2.95;;;22.10;99.90;;;;;;5090371;28;20436;-65
2021/06/23 06:10:21;;;;;;;10.85;2.40;;;22.20;99.90;;;;;;5089623;28;20032;-65
2021/06/23 06:12:46;;;;;;;8.63;3.15;;;22.40;99.90;;;;;;5105887;28;20032;-64
2021/06/23 06:15:12;;;;;;;9.60;3.28;;;21.80;99.90;;;;;;5104924;28;20040;-64
2021/06/23 06:17:38;;;;;;;11.05;3.75;;;21.50;99.90;;;;;;5089880;28;20111;-63
2021/06/23 06:20:06;;;;;;;7.57;4.05;;;21.20;99.90;;;;;;5071452;28;20474;-63
2021/06/23 06:22:32;;;;;;;6.63;3.55;;;21.10;99.90;;;;;;5070826;28;20485;-63
2021/06/23 06:24:59;;;;;;;6.88;3.10;;;20.90;99.90;;;;;;5089726;28;20486;-64
2021/06/23 06:27:25;;;;;;;7.70;3.97;;;20.80;99.90;;;;;;5089695;28;20537;-65
2021/06/23 06:29:51;;;;;;;5.75;3.20;;;20.60;99.90;;;;;;5071357;28;20104;-64
2021/06/23 06:32:17;;;;;;;5.57;3.58;;;20.60;99.90;;;;;;5088377;28;20461;-64
2021/06/23 06:34:43;;;;;;;12.43;4.43;;;20.50;99.90;;;;;;5090073;28;20193;-66
2021/06/23 06:37:09;;;;;;;4.07;2.90;;;20.60;99.90;;;;;;5089516;28;20138;-70
2021/06/23 06:39:35;;;;;;;8.60;3.83;;;20.60;99.90;;;;;;5071508;28;20031;-63
2021/06/23 06:42:00;;;;;;;13.75;4.97;;;20.80;99.90;;;;;;5089336;28;20203;-64
2021/06/23 06:44:30;;;;;;;9.63;4.07;;;20.70;99.90;;;;;;5104352;28;20032;-64
2021/06/23 06:46:56;;;;;;;7.68;3.33;;;20.60;99.90;;;;;;5070902;28;20032;-64
2021/06/23 06:49:22;;;;;;;10.63;4.35;;;20.50;99.90;;;;;;5088513;28;20068;-64
2021/06/23 06:51:48;;;;;;;9.63;4.15;;;20.50;99.90;;;;;;5071387;28;20053;-64
2021/06/23 06:54:13;;;;;;;9.10;3.80;;;20.50;99.90;;;;;;5088843;28;20024;-63
2021/06/23 06:56:39;;;;;;;11.23;3.60;;;20.70;99.90;;;;;;5071245;28;20487;-63
2021/06/23 06:59:05;;;;;;;5.88;3.30;;;20.80;99.90;;;;;;5089218;28;20103;-66
2021/06/23 07:01:30;;;;;;;11.50;4.50;;;20.80;99.90;;;;;;5070427;28;20374;-64
2021/06/23 07:03:56;;;;;;;7.47;3.58;;;20.90;99.90;;;;;;5089091;28;20027;-64
2021/06/23 07:06:22;;;;;;;6.40;3.47;;;20.90;99.90;;;;;;5104169;28;20131;-64
2021/06/23 07:08:47;;;;;;;10.50;4.30;;;21.00;99.90;;;;;;5104861;28;20028;-64
2021/06/23 07:11:13;;;;;;;6.20;3.50;;;20.90;99.90;;;;;;5088276;28;20032;-64
2021/06/23 07:13:38;;;;;;;11.20;3.97;;;20.90;99.90;;;;;;5104786;28;20059;-63
2021/06/23 07:16:04;;;;;;;8.30;3.63;;;21.00;99.90;;;;;;5089197;28;20058;-64
2021/06/23 07:18:31;;;;;;;4.43;2.95;;;21.10;99.90;;;;;;5087680;28;20043;-62
2021/06/23 07:20:57;;;;;;;7.22;3.30;;;21.00;99.90;;;;;;5088324;28;20046;-63
2021/06/23 07:23:23;;;;;;;6.78;3.42;;;21.00;99.90;;;;;;5087124;28;20439;-64
2021/06/23 07:25:48;;;;;;;8.20;4.15;;;20.90;99.90;;;;;;5088927;28;20477;-64
2021/06/23 07:28:16;;;;;;;6.32;3.28;;;20.80;99.90;;;;;;5088048;28;20126;-64
2021/06/23 07:30:45;;;;;;;11.35;3.20;;;20.80;99.90;;;;;;5089320;28;20039;-64
2021/06/23 07:33:11;;;;;;;8.27;3.13;;;21.00;99.90;;;;;;5103611;28;20044;-65
2021/06/23 07:38:22;;;;;;;5.88;3.20;;;21.10;99.90;;;;;;5087858;28;20105;-63
2021/06/23 07:40:56;;;;;;;4.07;2.88;;;21.20;99.90;;;;;;5070385;28;20350;-64
2021/06/23 07:43:22;;;;;;;7.40;3.55;;;21.20;99.90;;;;;;5086574;28;20024;-68
2021/06/23 07:45:53;;;;;;;7.78;3.13;;;21.10;99.90;;;;;;5082066;28;20426;-64
2021/06/23 07:48:28;;;;;;;7.22;2.42;;;21.20;99.90;;;;;;5068499;28;20047;-64
2021/06/23 07:56:09;;;;;;;8.60;2.28;;;22.90;98.90;;;;;;5089035;28;20050;-65
2021/06/23 08:10:00;;;;;;;6.05;3.20;;;24.10;96.20;;;;;;5068983;28;20512;-51
2021/06/23 08:14:38;;;;;;;6.15;2.10;;;24.10;95.70;;;;;;5068241;28;20028;-50
2021/06/23 08:17:04;;;;;;;3.25;2.20;;;24.40;95.80;;;;;;5068426;28;20039;-51
2021/06/23 08:19:29;;;;;;;5.28;2.17;;;24.60;95.60;;;;;;5049543;28;20040;-53
2021/06/23 08:21:55;;;;;;;10.85;2.88;;;24.60;95.30;;;;;;5068329;28;20035;-51
2021/06/23 08:24:21;;;;;;;8.88;2.75;;;24.70;95.30;;;;;;5062822;28;20032;-51
2021/06/23 08:26:47;;;;;;;6.97;2.20;;;24.90;95.10;;;;;;5088844;28;20032;-53
2021/06/23 08:29:12;;;;;;;5.38;3.08;;;24.90;95.00;;;;;;5103792;28;20115;-50
2021/06/23 08:31:38;;;;;;;6.43;3.30;;;24.90;95.10;;;;;;5088605;28;20103;-50
2021/06/23 08:34:04;;;;;;;4.55;2.63;;;24.90;95.00;;;;;;5088544;28;20035;-50
2021/06/23 08:36:29;;;;;;;9.25;3.63;;;24.90;95.20;;;;;;5087814;28;20101;-54
2021/06/23 08:38:55;;;;;;;11.77;5.35;;;25.00;95.00;;;;;;5070317;28;20110;-51
2021/06/23 08:41:26;;;;;;;67.45;20.40;;;25.00;95.20;;;;;;5091954;28;20024;-50
2021/06/23 08:43:58;;;;;;;107.05;24.55;;;25.20;96.00;;;;;;5098460;28;20028;-51
2021/06/23 08:46:25;;;;;;;26.27;8.88;;;25.30;95.70;;;;;;5101073;28;20027;-52
2021/06/23 08:48:52;;;;;;;25.70;8.27;;;25.30;94.70;;;;;;5089889;28;20125;-53
2021/06/23 08:51:20;;;;;;;11.93;4.10;;;25.40;94.90;;;;;;5088745;28;20470;-51
2021/06/23 08:53:46;;;;;;;14.68;4.40;;;25.70;94.40;;;;;;5099728;28;20020;-51
2021/06/23 08:56:11;;;;;;;9.10;3.58;;;25.50;94.20;;;;;;5072483;28;20381;-52
2021/06/23 08:58:37;;;;;;;9.20;3.30;;;26.00;93.90;;;;;;5091748;28;20025;-50
2021/06/23 09:01:03;;;;;;;4.70;2.88;;;26.10;93.60;;;;;;5107518;28;20422;-51
2021/06/23 09:03:29;;;;;;;4.35;3.00;;;26.20;93.40;;;;;;5106364;28;20449;-50
2021/06/23 09:05:56;;;;;;;16.42;4.78;;;26.40;93.60;;;;;;5106878;28;20028;-49
2021/06/23 09:08:37;;;;;;;7.07;2.78;;;26.40;93.30;;;;;;5073141;28;20170;-49
2021/06/23 09:11:23;;;;;;;8.07;3.13;;;26.40;93.40;;;;;;5092333;28;20069;-49
2021/06/23 09:13:49;;;;;;;5.93;2.60;;;26.20;93.70;;;;;;5090641;28;20040;-50
2021/06/23 09:16:15;;;;;;;12.07;7.85;;;26.30;93.40;;;;;;5090670;28;20027;-61
2021/06/23 09:18:43;;;;;;;8.13;6.43;;;26.30;93.70;;;;;;5105851;28;20036;-50
2021/06/23 09:21:12;;;;;;;16.83;9.20;;;26.10;93.90;;;;;;5072772;28;20592;-49
2021/06/23 09:23:44;;;;;;;12.30;9.00;;;26.50;93.60;;;;;;5106120;28;20024;-50
2021/06/23 09:26:23;;;;;;;14.90;6.70;;;26.20;95.00;;;;;;5106009;28;20032;-49
2021/06/23 09:29:14;;;;;;;21.83;6.13;;;26.20;93.70;;;;;;5072358;28;20028;-49
2021/06/23 09:32:00;;;;;;;7.38;3.58;;;25.90;94.30;;;;;;5106102;28;20020;-49
2021/06/23 09:34:25;;;;;;;12.07;4.35;;;26.00;94.80;;;;;;5071355;28;20036;-50
2021/06/23 09:36:52;;;;;;;11.48;6.22;;;25.90;94.50;;;;;;5105590;28;20607;-51
2021/06/23 09:39:20;;;;;;;11.77;5.50;;;26.00;97.30;;;;;;5071285;28;20418;-53
2021/06/23 09:41:48;;;;;;;13.88;6.50;;;26.10;97.00;;;;;;5071394;28;20035;-50
2021/06/23 09:44:14;;;;;;;8.52;5.20;;;26.00;96.70;;;;;;5104264;27;20394;-52
2021/06/23 09:46:47;;;;;;;7.30;3.83;;;26.10;94.70;;;;;;5090153;28;20139;-50
2021/06/23 09:49:26;;;;;;;7.68;3.97;;;25.90;94.10;;;;;;5071066;28;20028;-50
2021/06/23 09:52:09;;;;;;;17.27;4.82;;;26.50;94.90;;;;;;5072147;28;20028;-50
2021/06/23 09:54:54;;;;;;;6.60;4.40;;;26.90;95.30;;;;;;5071706;28;20476;-53
2021/06/23 09:57:21;;;;;;;7.25;3.58;;;27.30;93.30;;;;;;5090075;28;20090;-51
2021/06/23 09:59:53;;;;;;;12.07;4.15;;;26.40;92.50;;;;;;5090139;28;20119;-51
2021/06/23 10:02:34;;;;;;;8.15;3.30;;;26.10;93.90;;;;;;5089505;28;20028;-50
2021/06/23 10:05:26;;;;;;;6.88;4.25;;;25.80;93.40;;;;;;5071267;28;20085;-50
2021/06/23 10:07:53;;;;;;;12.35;4.13;;;25.80;93.40;;;;;;5089317;28;20380;-51
2021/06/23 10:10:22;;;;;;;7.13;3.45;;;25.50;94.60;;;;;;5089143;28;20152;-50
2021/06/23 10:12:49;;;;;;;3.50;3.00;;;25.70;94.20;;;;;;5089474;28;20016;-50
2021/06/23 10:15:15;;;;;;;4.22;3.42;;;25.50;93.60;;;;;;5070715;28;20048;-52
2021/06/23 10:17:43;;;;;;;6.72;3.30;;;25.90;93.80;;;;;;5070770;28;20085;-49
2021/06/23 10:20:09;;;;;;;6.57;3.75;;;26.00;93.50;;;;;;5089735;28;20052;-52
2021/06/23 10:22:37;;;;;;;6.20;3.08;;;26.40;92.90;;;;;;5089027;28;20016;-51
2021/06/23 10:25:06;;;;;;;4.38;2.95;;;26.40;93.10;;;;;;5070983;28;20123;-53
2021/06/23 10:27:35;;;;;;;3.75;2.70;;;26.70;92.60;;;;;;5089222;28;20051;-52
2021/06/23 10:30:02;;;;;;;3.53;2.90;;;26.80;92.80;;;;;;5104861;28;20059;-50
2021/06/23 10:32:28;;;;;;;3.08;2.78;;;27.40;92.00;;;;;;5069942;28;20067;-51
2021/06/23 10:34:55;;;;;;;5.75;2.80;;;27.80;92.90;;;;;;5089020;28;20055;-52
2021/06/23 10:37:22;;;;;;;3.28;2.95;;;28.20;92.50;;;;;;5088803;28;20396;-51
2021/06/23 10:39:49;;;;;;;7.63;3.10;;;27.90;91.50;;;;;;5089510;28;20152;-49
2021/06/23 10:42:15;;;;;;;7.05;3.30;;;28.00;91.10;;;;;;5088591;28;20143;-51
2021/06/23 10:44:47;;;;;;;5.25;3.35;;;27.80;91.00;;;;;;5088901;28;20441;-52
2021/06/23 10:47:30;;;;;;;6.78;2.75;;;27.50;91.30;;;;;;5070188;28;20076;-52
2021/06/23 10:49:57;;;;;;;3.72;2.60;;;27.70;90.90;;;;;;5071067;28;20024;-50
2021/06/23 10:52:22;;;;;;;3.88;2.10;;;28.20;91.10;;;;;;5088554;28;20134;-51
2021/06/23 10:54:51;;;;;;;4.53;3.08;;;28.40;90.80;;;;;;5089283;28;20020;-49
2021/06/23 10:57:26;;;;;;;5.90;2.67;;;28.70;90.20;;;;;;5070568;28;20051;-50
2021/06/23 10:59:56;;;;;;;8.88;2.90;;;28.50;89.90;;;;;;5071102;28;20032;-52
2021/06/23 11:02:35;;;;;;;2.47;2.28;;;28.30;90.50;;;;;;5070306;28;20028;-51
2021/06/23 11:05:01;;;;;;;4.65;3.00;;;28.30;89.90;;;;;;5070596;28;20024;-50
2021/06/23 11:07:55;;;;;;;6.10;3.25;;;28.30;90.30;;;;;;5069920;28;20039;-51
2021/06/23 11:10:29;;;;;;;3.25;2.92;;;28.20;89.50;;;;;;5050573;28;20036;-53
2021/06/23 11:13:03;;;;;;;4.93;3.05;;;27.50;90.50;;;;;;5070436;28;20095;-50
2021/06/23 11:15:31;;;;;;;6.05;4.18;;;27.20;91.10;;;;;;5069432;28;20074;-50
2021/06/23 11:18:36;;;;;;;3.55;2.80;;;27.30;91.20;;;;;;5070712;28;20060;-56
2021/06/23 11:21:02;;;;;;;6.35;3.17;;;27.50;91.00;;;;;;5069765;28;20048;-50
2021/06/23 11:23:59;;;;;;;8.13;2.58;;;28.20;90.30;;;;;;5088110;28;20050;-56
2021/06/23 11:26:25;;;;;;;4.43;2.95;;;28.40;90.10;;;;;;5069359;28;20066;-51
2021/06/23 11:28:56;;;;;;;5.72;2.97;;;28.40;87.80;;;;;;5089507;28;20149;-51
2021/06/23 11:31:38;;;;;;;4.75;2.17;;;28.40;88.40;;;;;;5071850;28;20562;-51
2021/06/23 11:34:04;;;;;;;3.30;2.35;;;28.60;87.80;;;;;;5071921;28;20034;-50
2021/06/23 11:36:29;;;;;;;2.90;2.05;;;28.90;86.80;;;;;;5071089;28;20028;-51
2021/06/23 11:38:56;;;;;;;7.15;2.63;;;29.10;87.70;;;;;;5071198;28;20330;-51
2021/06/23 11:41:23;;;;;;;4.22;2.00;;;29.60;87.20;;;;;;5068925;28;20123;-52
2021/06/23 11:43:49;;;;;;;2.92;2.17;;;29.60;85.00;;;;;;5071208;28;20024;-51
2021/06/23 11:46:15;;;;;;;4.05;1.73;;;29.00;85.70;;;;;;5088115;28;20072;-50
2021/06/23 11:48:41;;;;;;;2.50;2.30;;;28.70;86.20;;;;;;5088524;28;20031;-50
2021/06/23 11:51:08;;;;;;;6.50;1.83;;;29.00;85.60;;;;;;5070569;28;20036;-51
2021/06/23 11:53:34;;;;;;;4.05;2.05;;;29.20;85.90;;;;;;5087949;28;20442;-51
2021/06/23 11:55:59;;;;;;;2.55;2.00;;;29.00;85.30;;;;;;5070707;28;20020;-50
2021/06/23 11:58:25;;;;;;;2.60;2.33;;;28.60;85.20;;;;;;5087911;28;20450;-51
2021/06/23 12:00:51;;;;;;;3.88;2.53;;;28.50;86.40;;;;;;5088689;28;20032;-49
2021/06/23 12:03:17;;;;;;;4.07;2.83;;;28.20;85.60;;;;;;5088575;28;20500;-50
2021/06/23 12:05:47;;;;;;;2.20;2.10;;;28.10;87.10;;;;;;5088737;28;20043;-54
2021/06/23 12:08:13;;;;;;;3.65;2.35;;;27.90;87.40;;;;;;5088714;28;20071;-61
2021/06/23 12:10:40;;;;;;;7.05;2.60;;;27.90;88.20;;;;;;5070700;28;20024;-62
2021/06/23 12:13:07;;;;;;;2.55;2.35;;;27.80;87.50;;;;;;5070691;28;20500;-62
2021/06/23 12:15:34;;;;;;;3.63;2.20;;;27.70;87.10;;;;;;5088439;28;20167;-62
2021/06/23 12:18:08;;;;;;;3.42;2.00;;;27.80;86.50;;;;;;5068620;28;20477;-63
2021/06/23 12:20:35;;;;;;;3.38;2.38;;;28.00;86.60;;;;;;5088071;28;20066;-62
2021/06/23 12:23:04;;;;;;;8.70;2.97;;;28.20;87.80;;;;;;5070970;28;20449;-61
2021/06/23 12:25:36;;;;;;;3.05;2.13;;;27.90;87.10;;;;;;5088725;28;20032;-63
2021/06/23 12:28:03;;;;;;;2.15;2.00;;;27.80;87.10;;;;;;5071161;28;20040;-61
2021/06/23 12:30:30;;;;;;;2.10;1.90;;;27.50;88.40;;;;;;5073559;28;20020;-61
2021/06/23 12:32:57;;;;;;;2.15;2.00;;;27.40;88.10;;;;;;5074944;28;20024;-61
2021/06/23 12:35:23;;;;;;;4.90;2.22;;;27.30;88.40;;;;;;5092928;28;20459;-61
2021/06/23 12:37:49;;;;;;;8.15;2.63;;;27.30;88.10;;;;;;5075028;28;20035;-62
2021/06/23 12:40:16;;;;;;;4.45;2.10;;;27.30;88.30;;;;;;5092364;28;20452;-64
2021/06/23 12:42:42;;;;;;;5.60;1.80;;;27.20;88.90;;;;;;5074899;28;20074;-62
2021/06/23 12:45:09;;;;;;;3.00;1.92;;;27.00;89.10;;;;;;5058123;28;20028;-61
2021/06/23 12:47:35;;;;;;;4.07;2.25;;;27.00;90.00;;;;;;5073887;28;20438;-61
2021/06/23 12:50:02;;;;;;;2.38;1.98;;;27.10;89.00;;;;;;5074568;28;20032;-61
2021/06/23 12:52:28;;;;;;;1.80;1.48;;;27.00;89.40;;;;;;5092255;28;20028;-63
2021/06/23 12:54:53;;;;;;;2.33;1.95;;;27.10;90.00;;;;;;5092941;28;20103;-61
2021/06/23 12:57:19;;;;;;;3.53;2.03;;;27.40;90.00;;;;;;5074377;28;20055;-62
2021/06/23 12:59:46;;;;;;;4.13;2.33;;;27.50;89.90;;;;;;5092719;28;20078;-61
2021/06/23 13:02:11;;;;;;;3.28;2.78;;;27.30;90.00;;;;;;5092991;28;20023;-62
2021/06/23 13:04:37;;;;;;;3.33;2.15;;;27.20;89.70;;;;;;5091938;28;20024;-61
2021/06/23 13:07:03;;;;;;;2.50;2.20;;;26.80;90.60;;;;;;5074465;28;20039;-63
2021/06/23 13:09:29;;;;;;;3.90;2.25;;;26.60;90.90;;;;;;5091886;28;20032;-61
2021/06/23 13:11:55;;;;;;;2.70;2.03;;;26.60;91.20;;;;;;5092468;28;20051;-62